createdAt,value
2018-02-22T00:02:04.001Z,35.70
2018-02-22T00:04:31.490Z,32.30
2018-02-22T00:06:59.090Z,35.92
2018-02-22T00:09:26.673Z,29.00
2018-02-22T00:11:54.235Z,31.10
2018-02-22T00:14:21.668Z,27.13
2018-02-22T00:16:49.181Z,30.33
2018-02-22T00:19:16.668Z,34.85
2018-02-22T00:21:44.898Z,30.95
2018-02-22T00:24:12.343Z,26.05
2018-02-22T00:26:39.826Z,31.40
2018-02-22T00:29:07.468Z,28.58
2018-02-22T00:31:34.920Z,33.10
2018-02-22T00:34:02.400Z,33.13
2018-02-22T00:36:29.878Z,27.33
2018-02-22T00:38:57.329Z,27.50
2018-02-22T00:41:24.792Z,26.52
2018-02-22T00:43:53.012Z,31.12
2018-02-22T00:46:20.474Z,30.10
2018-02-22T00:48:47.934Z,31.83
2018-02-22T00:51:15.430Z,29.05
2018-02-22T00:53:42.974Z,32.78
2018-02-22T00:56:10.405Z,26.58
2018-02-22T00:58:37.907Z,29.37
2018-02-22T01:01:06.126Z,31.65
2018-02-22T01:03:33.614Z,27.05
2018-02-22T01:06:01.104Z,27.45
2018-02-22T01:08:29.350Z,27.30
2018-02-22T01:10:56.848Z,29.95
2018-02-22T01:13:24.316Z,29.80
2018-02-22T01:15:51.793Z,29.23
2018-02-22T01:18:20.803Z,24.25
2018-02-22T01:20:48.274Z,29.35
2018-02-22T01:23:15.724Z,26.05
2018-02-22T01:25:43.192Z,26.85
2018-02-22T01:28:10.645Z,29.15
2018-02-22T01:30:38.108Z,26.95
2018-02-22T01:33:05.547Z,30.00
2018-02-22T01:35:33.007Z,23.90
2018-02-22T01:38:00.456Z,21.73
2018-02-22T01:40:27.949Z,25.58
2018-02-22T01:42:56.163Z,23.40
2018-02-22T01:45:23.664Z,26.35
2018-02-22T01:47:51.126Z,25.05
2018-02-22T01:50:19.346Z,26.37
2018-02-22T01:52:46.802Z,23.75
2018-02-22T01:55:14.263Z,23.65
2018-02-22T01:57:41.709Z,21.70
2018-02-22T02:00:09.146Z,24.33
2018-02-22T02:02:36.612Z,24.98
2018-02-22T02:05:04.061Z,23.40
2018-02-22T02:07:35.973Z,23.60
2018-02-22T02:10:03.426Z,23.23
2018-02-22T02:12:30.966Z,22.58
2018-02-22T02:14:58.544Z,25.95
2018-02-22T02:17:26.013Z,24.05
2018-02-22T02:19:53.426Z,25.35
2018-02-22T02:22:21.069Z,21.08
2018-02-22T02:24:48.584Z,21.52
2018-02-22T02:27:16.112Z,24.70
2018-02-22T02:29:43.850Z,19.73
2018-02-22T02:32:12.099Z,21.05
2018-02-22T02:34:39.882Z,23.15
2018-02-22T02:37:07.495Z,22.35
2018-02-22T02:39:34.961Z,30.23
2018-02-22T02:42:02.438Z,24.70
2018-02-22T02:44:33.815Z,21.73
2018-02-22T02:47:01.700Z,22.83
2018-02-22T02:49:29.190Z,24.45
2018-02-22T02:51:56.628Z,17.80
2018-02-22T02:54:24.099Z,23.33
2018-02-22T02:56:51.646Z,23.55
2018-02-22T02:59:21.214Z,22.27
2018-02-22T03:01:49.141Z,24.80
2018-02-22T03:04:16.930Z,22.25
2018-02-22T03:19:44.403Z,19.30
2018-02-22T03:22:11.862Z,21.58
2018-02-22T03:24:39.352Z,20.50
2018-02-22T03:27:07.598Z,24.83
2018-02-22T03:29:35.846Z,23.73
2018-02-22T03:32:03.304Z,23.38
2018-02-22T03:34:30.780Z,23.17
2018-02-22T03:36:58.227Z,22.13
2018-02-22T03:39:25.694Z,27.98
2018-02-22T03:41:53.967Z,23.55
2018-02-22T03:44:21.428Z,24.90
2018-02-22T03:46:48.996Z,23.45
2018-02-22T03:49:16.501Z,23.42
2018-02-22T03:51:43.968Z,25.20
2018-02-22T03:54:11.414Z,26.20
2018-02-22T03:56:38.874Z,26.60
2018-02-22T03:59:06.350Z,26.58
2018-02-22T04:01:33.814Z,25.40
2018-02-22T04:04:01.268Z,23.90
2018-02-22T04:06:28.729Z,23.02
2018-02-22T04:08:56.214Z,24.02
2018-02-22T04:11:23.674Z,21.95
2018-02-22T04:13:51.123Z,24.70
2018-02-22T04:16:18.582Z,28.60
2018-02-22T04:18:46.910Z,27.87
2018-02-22T04:21:14.374Z,23.00
2018-02-22T04:23:41.820Z,24.02
2018-02-22T04:26:09.299Z,22.10
2018-02-22T04:28:36.983Z,23.45
2018-02-22T04:31:04.468Z,22.37
2018-02-22T04:33:32.695Z,22.33
2018-02-22T04:36:00.171Z,27.13
2018-02-22T04:38:27.638Z,23.38
2018-02-22T04:40:55.959Z,23.70
2018-02-22T04:43:23.454Z,29.10
2018-02-22T04:45:50.897Z,21.92
2018-02-22T04:48:18.375Z,24.30
2018-02-22T04:50:45.840Z,21.27
2018-02-22T04:53:14.164Z,21.00
2018-02-22T04:55:41.605Z,25.15
2018-02-22T04:58:09.064Z,21.25
2018-02-22T05:00:37.060Z,21.87
2018-02-22T05:03:04.552Z,21.05
2018-02-22T05:05:32.768Z,27.10
2018-02-22T05:08:00.239Z,24.00
2018-02-22T05:10:27.698Z,24.85
2018-02-22T05:12:55.899Z,25.83
2018-02-22T05:15:23.369Z,21.12
2018-02-22T05:17:51.581Z,24.65
2018-02-22T05:20:19.054Z,21.77
2018-02-22T05:22:46.504Z,22.02
2018-02-22T05:25:13.980Z,24.30
2018-02-22T05:27:41.441Z,19.77
2018-02-22T05:30:09.072Z,20.42
2018-02-22T05:32:36.498Z,19.40
2018-02-22T05:35:04.932Z,25.67
2018-02-22T05:37:32.428Z,22.45
2018-02-22T05:40:01.337Z,22.05
2018-02-22T05:42:28.812Z,23.25
2018-02-22T05:44:56.272Z,23.27
2018-02-22T05:47:23.747Z,17.40
2018-02-22T05:49:51.230Z,17.90
2018-02-22T05:52:18.700Z,20.00
2018-02-22T05:54:46.950Z,19.90
2018-02-22T05:57:14.412Z,22.83
2018-02-22T05:59:41.868Z,19.98
2018-02-22T06:02:09.334Z,19.83
2018-02-22T06:04:37.555Z,18.98
2018-02-22T06:07:05.028Z,20.60
2018-02-22T06:09:32.464Z,20.00
2018-02-22T06:11:59.939Z,18.73
2018-02-22T06:14:27.380Z,19.80
2018-02-22T06:16:54.972Z,19.23
2018-02-22T06:19:22.481Z,21.55
2018-02-22T06:21:49.908Z,22.52
2018-02-22T06:24:17.358Z,22.15
2018-02-22T06:26:44.850Z,22.98
2018-02-22T06:29:12.334Z,25.00
2018-02-22T06:31:39.792Z,23.52
2018-02-22T06:34:08.028Z,21.27
2018-02-22T06:36:35.539Z,23.92
2018-02-22T06:39:03.016Z,19.60
2018-02-22T06:41:31.695Z,22.75
2018-02-22T06:43:59.160Z,20.65
2018-02-22T06:46:27.387Z,21.12
2018-02-22T06:48:54.844Z,25.17
2018-02-22T06:51:22.338Z,20.67
2018-02-22T06:53:50.661Z,21.52
2018-02-22T06:56:18.134Z,24.35
2018-02-22T06:58:45.631Z,27.15
2018-02-22T07:01:13.085Z,19.33
2018-02-22T07:03:40.570Z,19.98
2018-02-22T07:06:08.015Z,26.15
2018-02-22T07:08:35.501Z,22.73
2018-02-22T07:11:03.026Z,19.52
2018-02-22T07:13:31.279Z,19.40
2018-02-22T07:16:02.644Z,25.48
2018-02-22T07:18:30.103Z,19.58
2018-02-22T07:20:58.345Z,21.00
2018-02-22T07:23:25.898Z,19.65
2018-02-22T07:25:54.166Z,21.00
2018-02-22T07:28:26.024Z,18.02
2018-02-22T07:30:54.202Z,20.20
2018-02-22T07:33:22.458Z,18.92
2018-02-22T07:35:49.901Z,19.17
2018-02-22T07:38:17.368Z,20.88
2018-02-22T07:40:45.006Z,20.27
2018-02-22T07:43:12.531Z,21.27
2018-02-22T07:45:39.936Z,16.73
2018-02-22T07:48:07.463Z,17.40
2018-02-22T07:50:35.706Z,23.42
2018-02-22T07:53:03.189Z,20.00
2018-02-22T07:55:31.388Z,20.35
2018-02-22T07:57:58.870Z,25.42
2018-02-22T08:00:26.405Z,20.77
2018-02-22T08:02:53.837Z,23.17
2018-02-22T08:05:21.306Z,20.42
2018-02-22T08:07:48.748Z,19.05
2018-02-22T08:10:16.208Z,16.77
2018-02-22T08:12:44.031Z,19.23
2018-02-22T08:15:11.477Z,18.65
2018-02-22T08:17:39.692Z,21.92
2018-02-22T08:20:07.207Z,17.45
2018-02-22T08:22:34.716Z,20.52
2018-02-22T08:25:02.180Z,18.12
2018-02-22T08:27:29.623Z,19.62
2018-02-22T08:29:57.150Z,17.48
2018-02-22T08:32:24.803Z,19.17
2018-02-22T08:34:52.262Z,19.45
2018-02-22T08:37:19.750Z,22.13
2018-02-22T08:39:47.970Z,17.73
2018-02-22T08:42:15.429Z,19.77
2018-02-22T08:44:43.702Z,17.25
2018-02-22T08:47:11.139Z,19.02
2018-02-22T08:49:38.609Z,20.42
2018-02-22T08:52:06.053Z,16.27
2018-02-22T08:54:33.544Z,21.92
2018-02-22T08:57:01.043Z,14.48
2018-02-22T08:59:29.264Z,18.73
2018-02-22T09:01:56.729Z,15.52
2018-02-22T09:04:24.160Z,16.27
2018-02-22T09:06:51.635Z,18.20
2018-02-22T09:09:19.085Z,12.98
2018-02-22T09:11:46.524Z,10.70
2018-02-22T09:14:13.974Z,14.00
2018-02-22T09:16:41.726Z,15.15
2018-02-22T09:19:09.177Z,16.20
2018-02-22T09:21:36.638Z,15.75
2018-02-22T09:24:04.317Z,14.10
2018-02-22T09:26:31.799Z,14.90
2018-02-22T09:28:59.286Z,13.52
2018-02-22T09:31:26.708Z,19.17
2018-02-22T09:33:54.181Z,14.48
2018-02-22T09:36:21.632Z,13.70
2018-02-22T09:38:49.241Z,13.30
2018-02-22T09:41:16.705Z,13.80
2018-02-22T09:43:44.262Z,11.90
2018-02-22T09:46:12.449Z,13.13
2018-02-22T09:48:39.910Z,12.20
2018-02-22T09:51:08.135Z,18.35
2018-02-22T09:53:35.599Z,17.20
2018-02-22T09:56:03.096Z,12.75
2018-02-22T09:58:30.542Z,13.97
2018-02-22T10:00:58.013Z,14.60
2018-02-22T10:03:25.502Z,14.13
2018-02-22T10:05:53.779Z,13.32
2018-02-22T10:08:21.989Z,14.13
2018-02-22T10:10:49.473Z,14.43
2018-02-22T10:13:16.906Z,16.10
2018-02-22T10:15:45.156Z,14.87
2018-02-22T10:18:12.657Z,18.25
2018-02-22T10:20:40.119Z,15.55
2018-02-22T10:23:07.599Z,13.77
2018-02-22T10:25:35.161Z,14.10
2018-02-22T10:28:02.641Z,13.65
2018-02-22T10:30:30.887Z,12.23
2018-02-22T10:32:58.325Z,13.20
2018-02-22T10:35:25.782Z,13.62
2018-02-22T10:37:53.243Z,15.73
2018-02-22T10:40:20.718Z,13.48
2018-02-22T10:42:48.212Z,12.13
2018-02-22T10:45:15.666Z,12.37
2018-02-22T10:50:16.932Z,17.33
2018-02-22T10:52:44.443Z,10.30
2018-02-22T10:55:11.907Z,10.43
2018-02-22T10:57:39.340Z,12.10
2018-02-22T11:00:06.845Z,12.60
2018-02-22T11:02:40.824Z,13.65
2018-02-22T11:05:08.294Z,11.52
2018-02-22T11:07:36.554Z,10.98
2018-02-22T11:10:04.039Z,11.20
2018-02-22T11:12:32.277Z,12.37
2018-02-22T11:14:59.741Z,10.05
2018-02-22T11:17:27.217Z,12.30
2018-02-22T11:19:55.474Z,11.35
2018-02-22T11:22:22.890Z,12.30
2018-02-22T11:24:50.360Z,10.43
2018-02-22T11:27:17.800Z,14.07
2018-02-22T11:29:45.295Z,11.05
2018-02-22T11:32:12.739Z,10.10
2018-02-22T11:34:40.212Z,12.05
2018-02-22T11:37:07.656Z,12.35
2018-02-22T11:39:35.109Z,9.73
2018-02-22T11:42:02.580Z,8.18
2018-02-22T11:44:30.024Z,10.05
2018-02-22T11:46:57.476Z,8.90
2018-02-22T11:49:24.913Z,11.50
2018-02-22T11:51:52.490Z,8.43
2018-02-22T11:54:19.923Z,10.60
2018-02-22T11:56:47.404Z,9.65
2018-02-22T11:59:14.872Z,8.65
2018-02-22T12:01:42.328Z,10.20
2018-02-22T12:04:09.759Z,10.43
2018-02-22T12:06:37.219Z,7.30
2018-02-22T12:09:04.656Z,9.23
2018-02-22T12:11:32.105Z,8.40
2018-02-22T12:13:59.573Z,8.43
2018-02-22T12:16:27.039Z,9.57
2018-02-22T12:18:54.481Z,7.20
2018-02-22T12:21:21.953Z,9.35
2018-02-22T12:23:50.192Z,10.40
2018-02-22T12:26:17.628Z,9.40
2018-02-22T12:28:45.235Z,7.78
2018-02-22T12:31:12.655Z,8.93
2018-02-22T12:33:40.899Z,6.72
2018-02-22T12:36:08.360Z,8.27
2018-02-22T12:38:35.876Z,8.57
2018-02-22T12:41:03.295Z,8.45
2018-02-22T12:43:31.521Z,12.98
2018-02-22T12:45:59.726Z,11.12
2018-02-22T12:48:27.789Z,6.85
2018-02-22T12:50:55.247Z,6.80
2018-02-22T12:53:22.710Z,7.55
2018-02-22T12:55:50.217Z,10.10
2018-02-22T12:58:17.629Z,7.70
2018-02-22T13:00:45.946Z,8.68
2018-02-22T13:03:13.360Z,7.28
2018-02-22T13:05:41.616Z,9.77
2018-02-22T13:08:09.157Z,6.10
2018-02-22T13:10:36.623Z,8.43
2018-02-22T13:13:04.073Z,9.18
2018-02-22T13:15:32.307Z,7.95
2018-02-22T13:17:59.734Z,7.22
2018-02-22T13:20:27.961Z,8.30
2018-02-22T13:22:55.407Z,9.10
2018-02-22T13:25:22.971Z,9.15
2018-02-22T13:27:50.414Z,8.35
2018-02-22T13:30:17.881Z,8.43
2018-02-22T13:32:57.046Z,10.20
2018-02-22T13:35:24.501Z,8.13
2018-02-22T13:40:50.562Z,9.60
2018-02-22T13:43:18.798Z,7.80
2018-02-22T13:45:46.240Z,5.05
2018-02-22T13:48:13.707Z,9.02
2018-02-22T13:50:52.948Z,6.60
2018-02-22T13:53:20.536Z,7.65
2018-02-22T13:55:47.971Z,9.77
2018-02-22T13:58:15.416Z,6.95
2018-02-22T14:00:54.659Z,5.68
2018-02-22T14:03:22.141Z,5.65
2018-02-22T14:05:49.568Z,7.65
2018-02-22T14:08:28.916Z,4.80
2018-02-22T14:10:57.016Z,7.95
2018-02-22T14:13:25.257Z,8.55
2018-02-22T14:15:52.703Z,6.03
2018-02-22T14:18:20.169Z,6.03
2018-02-22T14:20:47.621Z,6.00
2018-02-22T14:23:15.864Z,5.75
2018-02-22T14:25:43.292Z,6.20
2018-02-22T14:28:10.747Z,7.85
2018-02-22T14:30:38.203Z,5.90
2018-02-22T14:33:09.546Z,10.60
2018-02-22T14:35:37.753Z,6.75
2018-02-22T14:38:05.875Z,10.25
2018-02-22T14:40:34.110Z,7.65
2018-02-22T14:43:01.562Z,8.52
2018-02-22T14:45:29.084Z,6.95
2018-02-22T14:47:56.505Z,10.43
2018-02-22T14:50:23.960Z,8.98
2018-02-22T14:52:51.432Z,7.60
2018-02-22T14:55:18.904Z,5.90
2018-02-22T14:57:47.104Z,32.58
2018-02-22T15:00:14.614Z,72.50
2018-02-22T15:02:42.063Z,7.22
2018-02-22T15:05:09.525Z,21.75
2018-02-22T15:07:36.972Z,22.20
2018-02-22T15:10:04.460Z,7.75
2018-02-22T15:12:32.677Z,5.97
2018-02-22T15:15:04.012Z,7.05
2018-02-22T15:17:31.458Z,6.15
2018-02-22T15:19:58.963Z,6.85
2018-02-22T15:22:26.421Z,8.32
2018-02-22T15:24:53.847Z,6.85
2018-02-22T15:27:21.378Z,9.75
2018-02-22T15:29:48.947Z,7.40
2018-02-22T15:32:16.402Z,6.78
2018-02-22T15:34:43.849Z,7.12
2018-02-22T15:37:11.327Z,6.93
2018-02-22T15:39:38.765Z,6.47
2018-02-22T15:42:06.339Z,6.87
2018-02-22T15:44:33.753Z,7.93
2018-02-22T15:47:02.016Z,7.50
2018-02-22T15:49:29.450Z,7.00
2018-02-22T15:51:56.907Z,6.45
2018-02-22T15:54:24.368Z,7.07
2018-02-22T15:56:51.819Z,7.47
2018-02-22T15:59:19.256Z,6.55
2018-02-22T16:01:46.723Z,9.68
2018-02-22T16:04:14.179Z,7.95
2018-02-22T16:06:42.430Z,6.85
2018-02-22T16:09:09.885Z,7.40
2018-02-22T16:11:37.365Z,8.40
2018-02-22T16:14:04.885Z,8.48
2018-02-22T16:16:33.115Z,8.27
2018-02-22T16:19:00.583Z,5.62
2018-02-22T16:21:28.038Z,7.93
2018-02-22T16:23:55.499Z,6.25
2018-02-22T16:26:22.948Z,7.05
2018-02-22T16:28:50.392Z,6.32
2018-02-22T16:31:17.838Z,7.43
2018-02-22T16:33:45.300Z,11.25
2018-02-22T16:36:12.787Z,7.62
2018-02-22T16:38:40.244Z,7.45
2018-02-22T16:41:08.513Z,7.82
2018-02-22T16:43:35.968Z,7.15
2018-02-22T16:46:03.457Z,7.30
2018-02-22T16:48:30.926Z,8.05
2018-02-22T16:50:58.441Z,7.55
2018-02-22T16:53:25.932Z,8.73
2018-02-22T16:55:53.386Z,7.32
2018-02-22T16:58:20.849Z,6.90
2018-02-22T17:00:48.304Z,7.37
2018-02-22T17:03:15.751Z,6.70
2018-02-22T17:05:43.332Z,6.65
2018-02-22T17:08:10.797Z,6.28
2018-02-22T17:10:38.277Z,7.85
2018-02-22T17:13:05.722Z,7.00
2018-02-22T17:15:33.303Z,8.48
2018-02-22T17:18:00.756Z,10.48
2018-02-22T17:20:28.233Z,7.05
2018-02-22T17:22:55.664Z,6.82
2018-02-22T17:25:22.627Z,6.45
2018-02-22T17:27:56.543Z,7.43
2018-02-22T17:30:30.607Z,7.40
2018-02-22T17:32:58.090Z,7.47
2018-02-22T17:35:31.180Z,6.07
2018-02-22T17:38:01.574Z,6.12
2018-02-22T17:40:29.034Z,10.57
2018-02-22T17:42:58.933Z,8.63
2018-02-22T17:45:26.432Z,10.02
2018-02-22T17:47:53.877Z,6.45
2018-02-22T17:50:21.316Z,7.10
2018-02-22T17:52:48.790Z,7.32
2018-02-22T17:55:16.242Z,7.95
2018-02-22T17:57:43.716Z,9.18
2018-02-22T18:00:11.937Z,6.10
2018-02-22T18:02:39.439Z,9.65
2018-02-22T18:05:07.713Z,10.10
2018-02-22T18:07:35.293Z,8.23
2018-02-22T18:10:03.598Z,9.07
2018-02-22T18:12:31.157Z,7.18
2018-02-22T18:14:58.620Z,6.95
2018-02-22T18:17:26.124Z,10.50
2018-02-22T18:19:53.598Z,8.85
2018-02-22T18:22:21.804Z,11.80
2018-02-22T18:24:50.195Z,10.50
2018-02-22T18:27:17.653Z,8.25
2018-02-22T18:29:45.185Z,7.95
2018-02-22T18:32:12.634Z,9.52
2018-02-22T18:34:40.855Z,7.68
2018-02-22T18:37:14.090Z,7.55
2018-02-22T18:39:41.569Z,7.05
2018-02-22T18:42:14.671Z,6.10
2018-02-22T18:44:47.762Z,8.63
2018-02-22T18:47:15.256Z,6.85
2018-02-22T18:49:42.709Z,13.93
2018-02-22T18:52:10.162Z,9.35
2018-02-22T18:54:37.716Z,6.30
2018-02-22T18:57:05.285Z,7.65
2018-02-22T18:59:32.736Z,8.10
2018-02-22T19:02:00.797Z,8.82
2018-02-22T19:04:28.245Z,8.10
2018-02-22T19:06:55.701Z,5.70
2018-02-22T19:09:23.205Z,9.27
2018-02-22T19:11:50.670Z,8.48
2018-02-22T19:14:18.117Z,8.73
2018-02-22T19:16:45.598Z,9.35
2018-02-22T19:19:13.048Z,6.68
2018-02-22T19:21:40.545Z,8.55
2018-02-22T19:24:08.028Z,6.50
2018-02-22T19:26:36.263Z,6.97
2018-02-22T19:29:04.488Z,9.10
2018-02-22T19:31:32.708Z,9.13
2018-02-22T19:34:00.163Z,7.80
2018-02-22T19:36:27.623Z,7.93
2018-02-22T19:38:55.086Z,7.12
2018-02-22T19:41:22.538Z,9.23
2018-02-22T19:43:49.981Z,8.77
2018-02-22T19:46:17.519Z,9.85
2018-02-22T19:48:45.741Z,12.05
2018-02-22T19:51:13.164Z,10.75
2018-02-22T19:53:40.646Z,11.77
2018-02-22T19:56:08.071Z,12.10
2018-02-22T19:58:35.546Z,12.60
2018-02-22T20:01:02.981Z,8.20
2018-02-22T20:03:30.475Z,9.45
2018-02-22T20:05:57.914Z,9.27
2018-02-22T20:08:25.405Z,8.15
2018-02-22T20:10:53.772Z,10.25
2018-02-22T20:13:22.047Z,11.75
2018-02-22T20:15:49.504Z,8.70
2018-02-22T20:18:16.956Z,8.82
2018-02-22T20:20:44.417Z,7.10
2018-02-22T20:23:11.912Z,7.75
2018-02-22T20:25:39.434Z,11.05
2018-02-22T20:28:10.907Z,8.32
2018-02-22T20:30:38.438Z,10.13
2018-02-22T20:33:05.966Z,11.05
2018-02-22T20:35:33.965Z,6.90
2018-02-22T20:38:01.436Z,8.23
2018-02-22T20:40:29.724Z,8.57
2018-02-22T20:42:57.262Z,10.10
2018-02-22T20:45:28.810Z,9.68
2018-02-22T20:48:01.434Z,10.38
2018-02-22T20:50:29.414Z,8.82
2018-02-22T20:53:02.579Z,8.32
2018-02-22T20:55:40.044Z,10.38
2018-02-22T20:58:08.271Z,8.30
2018-02-22T21:00:35.786Z,11.65
2018-02-22T21:03:04.027Z,10.07
2018-02-22T21:05:31.529Z,10.07
2018-02-22T21:07:58.996Z,9.63
2018-02-22T21:10:26.574Z,7.82
2018-02-22T21:12:54.132Z,9.25
2018-02-22T21:15:21.651Z,11.12
2018-02-22T21:17:49.202Z,10.45
2018-02-22T21:20:17.425Z,8.60
2018-02-22T21:22:45.302Z,9.95
2018-02-22T21:25:12.752Z,11.82
2018-02-22T21:27:40.244Z,9.38
2018-02-22T21:30:07.719Z,8.07
2018-02-22T21:32:35.192Z,7.90
2018-02-22T21:35:02.661Z,11.05
2018-02-22T21:37:30.139Z,10.52
2018-02-22T21:39:57.608Z,9.07
2018-02-22T21:42:25.110Z,13.00
2018-02-22T21:44:52.548Z,8.82
2018-02-22T21:47:20.810Z,9.10
2018-02-22T21:49:49.061Z,12.88
2018-02-22T21:52:17.279Z,11.00
2018-02-22T21:54:44.746Z,10.20
2018-02-22T21:57:12.276Z,9.82
2018-02-22T21:59:39.696Z,12.85
2018-02-22T22:02:07.144Z,13.65
2018-02-22T22:04:35.361Z,10.77
2018-02-22T22:07:03.637Z,11.05
2018-02-22T22:09:31.083Z,10.80
2018-02-22T22:11:59.192Z,10.43
2018-02-22T22:14:26.656Z,11.43
2018-02-22T22:16:54.108Z,9.05
2018-02-22T22:19:21.582Z,11.00
2018-02-22T22:21:49.107Z,13.13
2018-02-22T22:24:16.583Z,12.77
2018-02-22T22:26:44.452Z,9.32
2018-02-22T22:29:11.912Z,11.75
2018-02-22T22:31:39.398Z,11.00
2018-02-22T22:34:06.835Z,12.68
2018-02-22T22:36:34.314Z,8.93
2018-02-22T22:39:01.759Z,12.40
2018-02-22T22:41:29.231Z,10.48
2018-02-22T22:43:56.695Z,11.20
2018-02-22T22:46:24.126Z,12.15
2018-02-22T22:48:51.589Z,10.05
2018-02-22T22:51:19.064Z,10.82
2018-02-22T22:53:46.494Z,10.63
2018-02-22T22:56:14.776Z,12.57
2018-02-22T22:58:42.221Z,11.85
2018-02-22T23:01:09.700Z,15.30
2018-02-22T23:03:37.151Z,8.25
2018-02-22T23:06:04.603Z,14.70
2018-02-22T23:08:32.332Z,9.73
2018-02-22T23:10:59.824Z,11.95
2018-02-22T23:13:27.301Z,10.27
2018-02-22T23:15:54.784Z,12.57
2018-02-22T23:18:22.272Z,9.40
2018-02-22T23:20:49.728Z,14.48
2018-02-22T23:23:17.238Z,9.82
2018-02-22T23:25:50.197Z,12.05
2018-02-22T23:28:17.710Z,11.35
2018-02-22T23:30:46.155Z,13.95
2018-02-22T23:33:14.405Z,10.38
2018-02-22T23:35:41.859Z,10.00
2018-02-22T23:38:09.316Z,10.30
2018-02-22T23:40:42.321Z,11.38
2018-02-22T23:43:09.814Z,12.90
2018-02-22T23:45:37.285Z,11.00
2018-02-22T23:48:04.760Z,11.05
2018-02-22T23:50:32.226Z,11.23
2018-02-22T23:52:59.666Z,11.75
2018-02-22T23:55:27.157Z,11.32
2018-02-22T23:57:55.362Z,12.43
